createdAt,value
2022-08-31T00:00:20.262Z,36.02
2022-08-31T00:01:00.851Z,37.28
2022-08-31T00:01:41.269Z,37.02
2022-08-31T00:02:23.078Z,37.91
2022-08-31T00:03:03.297Z,38.96
2022-08-31T00:03:43.595Z,39.62
2022-08-31T00:04:07.378Z,39.48
2022-08-31T00:04:30.100Z,39.46
2022-08-31T00:04:52.499Z,39.11
2022-08-31T00:05:14.538Z,39.11
2022-08-31T00:05:39.069Z,39.37
2022-08-31T00:06:03.111Z,39.32
2022-08-31T00:06:24.735Z,39.27
2022-08-31T00:06:51.415Z,39.55
2022-08-31T00:07:16.864Z,40.46
2022-08-31T00:07:39.172Z,40.44
2022-08-31T00:08:02.439Z,40.40
2022-08-31T00:08:26.023Z,40.31
2022-08-31T00:08:52.060Z,41.00
2022-08-31T00:09:13.710Z,40.72
2022-08-31T00:09:35.862Z,40.81
2022-08-31T00:09:58.002Z,41.21
2022-08-31T00:10:22.298Z,41.39
2022-08-31T00:10:55.497Z,40.90
2022-08-31T00:11:18.580Z,40.77
2022-08-31T00:11:40.244Z,40.74
2022-08-31T00:12:04.412Z,40.33
2022-08-31T00:12:26.159Z,40.56
2022-08-31T00:12:48.999Z,40.53
2022-08-31T00:13:10.773Z,40.87
2022-08-31T00:13:32.574Z,41.00
2022-08-31T00:13:56.858Z,41.08
2022-08-31T00:14:19.242Z,40.78
2022-08-31T00:14:41.035Z,41.01
2022-08-31T00:15:03.245Z,41.93
2022-08-31T00:15:27.015Z,42.57
2022-08-31T00:15:49.452Z,42.82
2022-08-31T00:16:12.601Z,43.21
2022-08-31T00:16:37.430Z,42.87
2022-08-31T00:17:00.292Z,42.79
2022-08-31T00:17:23.261Z,43.32
2022-08-31T00:17:45.161Z,43.45
2022-08-31T00:18:08.556Z,43.62
2022-08-31T00:18:30.202Z,43.74
2022-08-31T00:18:53.512Z,43.32
2022-08-31T00:19:15.817Z,43.43
2022-08-31T00:19:37.479Z,44.05
2022-08-31T00:19:59.149Z,44.46
2022-08-31T00:20:33.620Z,44.67
2022-08-31T00:20:57.173Z,44.81
2022-08-31T00:21:20.661Z,44.77
2022-08-31T00:21:42.808Z,44.79
2022-08-31T00:22:06.573Z,44.79
2022-08-31T00:22:29.209Z,44.44
2022-08-31T00:22:50.832Z,44.14
2022-08-31T00:23:14.567Z,44.04
2022-08-31T00:23:37.264Z,44.18
2022-08-31T00:23:59.311Z,45.02
2022-08-31T00:24:20.967Z,44.74
2022-08-31T00:24:42.649Z,44.44
2022-08-31T00:25:06.197Z,44.67
2022-08-31T00:25:27.894Z,44.75
2022-08-31T00:25:49.944Z,44.24
2022-08-31T00:26:11.748Z,43.82
2022-08-31T00:26:34.490Z,43.64
2022-08-31T00:26:56.168Z,43.76
2022-08-31T00:27:17.818Z,43.85
2022-08-31T00:27:39.753Z,43.60
2022-08-31T00:28:02.490Z,43.63
2022-08-31T00:28:25.432Z,43.56
2022-08-31T00:28:47.733Z,43.67
2022-08-31T00:29:09.588Z,43.52
2022-08-31T00:29:31.304Z,43.67
2022-08-31T00:29:54.133Z,43.62
2022-08-31T00:30:17.929Z,43.65
2022-08-31T00:30:40.567Z,44.06
2022-08-31T00:31:02.266Z,44.46
2022-08-31T00:31:24.035Z,45.07
2022-08-31T00:31:46.822Z,45.32
2022-08-31T00:32:08.707Z,45.36
2022-08-31T00:32:31.806Z,45.85
2022-08-31T00:32:53.937Z,45.85
2022-08-31T00:33:19.956Z,45.71
2022-08-31T00:33:42.617Z,46.08
2022-08-31T00:34:04.722Z,46.14
2022-08-31T00:34:27.909Z,46.15
2022-08-31T00:34:52.298Z,46.40
2022-08-31T00:35:13.980Z,46.41
2022-08-31T00:35:36.589Z,46.46
2022-08-31T00:36:42.241Z,46.32
2022-08-31T00:37:04.415Z,46.24
2022-08-31T00:37:27.048Z,46.16
2022-08-31T00:37:48.709Z,46.32
2022-08-31T00:38:11.609Z,46.76
2022-08-31T00:38:34.347Z,46.37
2022-08-31T00:38:56.879Z,46.44
2022-08-31T00:39:18.665Z,46.72
2022-08-31T00:39:41.369Z,46.17
2022-08-31T00:40:04.482Z,46.46
2022-08-31T00:40:27.543Z,46.68
2022-08-31T00:40:49.438Z,46.59
2022-08-31T00:41:12.807Z,46.61
2022-08-31T00:41:37.465Z,46.68
2022-08-31T00:41:59.400Z,46.76
2022-08-31T00:42:21.145Z,46.55
2022-08-31T00:42:42.816Z,46.45
2022-08-31T00:43:05.999Z,46.29
2022-08-31T00:43:36.081Z,45.96
2022-08-31T00:44:00.461Z,45.94
2022-08-31T00:44:23.514Z,46.70
2022-08-31T00:44:45.487Z,46.13
2022-08-31T00:45:08.182Z,46.23
2022-08-31T00:45:29.928Z,46.39
2022-08-31T00:45:51.700Z,46.59
2022-08-31T00:46:18.051Z,46.14
2022-08-31T00:46:42.372Z,46.01
2022-08-31T00:47:04.618Z,46.04
2022-08-31T00:47:27.263Z,46.05
2022-08-31T00:47:50.327Z,46.01
2022-08-31T00:48:12.077Z,46.34
2022-08-31T00:48:34.352Z,46.63
2022-08-31T00:49:02.698Z,46.62
2022-08-31T00:49:28.158Z,46.79
2022-08-31T00:49:51.410Z,46.85
2022-08-31T00:50:16.050Z,46.51
2022-08-31T00:50:38.781Z,46.18
2022-08-31T00:51:01.860Z,46.06
2022-08-31T00:51:24.089Z,45.33
2022-08-31T00:51:50.675Z,45.07
2022-08-31T00:52:16.137Z,45.85
2022-08-31T00:52:41.096Z,45.82
2022-08-31T00:53:02.848Z,45.40
2022-08-31T00:53:25.387Z,45.95
2022-08-31T00:53:48.036Z,45.80
2022-08-31T00:54:17.754Z,46.27
2022-08-31T00:54:44.298Z,46.02
2022-08-31T00:55:09.809Z,46.18
2022-08-31T00:55:34.311Z,45.25
2022-08-31T00:55:57.412Z,45.25
2022-08-31T00:56:20.052Z,45.41
2022-08-31T00:56:44.752Z,45.46
2022-08-31T00:57:08.289Z,45.57
2022-08-31T00:57:34.181Z,45.13
2022-08-31T00:57:59.838Z,45.15
2022-08-31T00:58:21.876Z,44.01
2022-08-31T00:58:44.237Z,43.60
2022-08-31T00:59:12.532Z,44.11
2022-08-31T00:59:35.733Z,44.47
2022-08-31T00:59:59.466Z,44.42
2022-08-31T01:00:25.092Z,45.54
2022-08-31T01:00:47.737Z,45.28
2022-08-31T01:01:12.591Z,44.92
2022-08-31T01:01:34.640Z,44.57
2022-08-31T01:01:56.477Z,45.13
2022-08-31T01:02:18.658Z,45.23
2022-08-31T01:02:41.515Z,46.19
2022-08-31T01:03:07.394Z,45.83
2022-08-31T01:03:29.095Z,46.09
2022-08-31T01:03:50.805Z,45.96
2022-08-31T01:04:13.531Z,45.77
2022-08-31T01:04:35.768Z,45.94
2022-08-31T01:04:57.459Z,45.17
2022-08-31T01:05:20.054Z,45.63
2022-08-31T01:05:43.707Z,45.42
2022-08-31T01:06:05.824Z,45.32
2022-08-31T01:06:27.980Z,45.62
2022-08-31T01:06:51.433Z,45.15
2022-08-31T01:07:15.190Z,45.56
2022-08-31T01:07:38.946Z,45.58
2022-08-31T01:08:01.652Z,45.53
2022-08-31T01:08:28.796Z,45.81
2022-08-31T01:08:56.531Z,45.68
2022-08-31T01:09:21.143Z,45.92
2022-08-31T01:09:55.468Z,46.09
2022-08-31T01:10:21.832Z,46.16
2022-08-31T01:10:45.009Z,45.41
2022-08-31T01:11:06.987Z,45.66
2022-08-31T01:11:29.394Z,45.22
2022-08-31T01:11:52.144Z,45.37
2022-08-31T01:12:14.011Z,45.13
2022-08-31T01:12:36.231Z,45.81
2022-08-31T01:12:59.521Z,45.59
2022-08-31T01:13:23.024Z,45.67
2022-08-31T01:13:48.271Z,45.60
2022-08-31T01:14:10.876Z,46.14
2022-08-31T01:14:32.921Z,45.59
2022-08-31T01:14:55.185Z,46.12
2022-08-31T01:15:18.838Z,46.46
2022-08-31T01:15:47.979Z,46.06
2022-08-31T01:16:18.283Z,46.28
2022-08-31T01:16:44.894Z,46.57
2022-08-31T01:17:07.500Z,47.21
2022-08-31T01:17:31.728Z,46.85
2022-08-31T01:17:56.223Z,46.47
2022-08-31T01:18:20.949Z,46.91
2022-08-31T01:18:43.993Z,46.97
2022-08-31T01:19:13.366Z,46.38
2022-08-31T01:19:40.165Z,46.77
2022-08-31T01:20:09.264Z,46.76
2022-08-31T01:20:37.269Z,47.43
2022-08-31T01:21:14.907Z,47.16
2022-08-31T01:21:43.748Z,47.21
2022-08-31T01:22:14.895Z,47.25
2022-08-31T01:22:43.019Z,46.85
2022-08-31T01:23:09.482Z,47.06
2022-08-31T01:23:34.837Z,47.44
2022-08-31T01:24:02.826Z,47.24
2022-08-31T01:24:26.459Z,47.39
2022-08-31T01:24:51.941Z,46.83
2022-08-31T01:25:14.606Z,47.38
2022-08-31T01:25:38.121Z,47.11
2022-08-31T01:26:03.449Z,47.27
2022-08-31T01:26:28.040Z,47.63
2022-08-31T01:26:55.483Z,46.80
2022-08-31T01:27:23.368Z,46.91
2022-08-31T01:27:46.777Z,46.83
2022-08-31T01:28:09.411Z,47.19
2022-08-31T01:28:32.929Z,47.34
2022-08-31T01:28:58.291Z,47.78
2022-08-31T01:29:21.255Z,47.73
2022-08-31T01:29:43.468Z,47.58
2022-08-31T01:30:10.312Z,47.79
2022-08-31T01:30:34.010Z,47.50
2022-08-31T01:31:02.082Z,47.73
2022-08-31T01:31:28.775Z,47.60
2022-08-31T01:31:50.804Z,47.58
2022-08-31T01:32:13.537Z,47.61
2022-08-31T01:32:35.216Z,47.33
2022-08-31T01:32:57.298Z,47.62
2022-08-31T01:33:19.121Z,47.52
2022-08-31T01:33:40.989Z,47.89
2022-08-31T01:34:03.717Z,48.09
2022-08-31T01:34:25.544Z,47.70
2022-08-31T01:34:47.663Z,47.34
2022-08-31T01:35:11.513Z,47.35
2022-08-31T01:35:34.551Z,47.93
2022-08-31T01:35:58.168Z,47.91
2022-08-31T01:36:20.569Z,47.47
2022-08-31T01:36:44.911Z,46.93
2022-08-31T01:37:07.807Z,47.89
2022-08-31T01:37:30.248Z,47.63
2022-08-31T01:37:53.428Z,47.42
2022-08-31T01:38:16.525Z,47.49
2022-08-31T01:38:39.180Z,47.48
2022-08-31T01:39:00.861Z,47.41
2022-08-31T01:39:23.216Z,47.55
2022-08-31T01:39:44.898Z,47.30
2022-08-31T01:40:08.612Z,46.57
2022-08-31T01:40:34.521Z,46.90
2022-08-31T01:41:01.793Z,45.63
2022-08-31T01:41:23.608Z,46.19
2022-08-31T01:41:46.629Z,46.12
2022-08-31T01:42:08.352Z,46.78
2022-08-31T01:42:33.167Z,47.12
2022-08-31T01:42:55.938Z,47.21
2022-08-31T01:43:18.116Z,47.84
2022-08-31T01:43:40.859Z,47.09
2022-08-31T01:44:03.077Z,47.11
2022-08-31T01:44:27.159Z,47.41
2022-08-31T01:44:49.817Z,48.45
2022-08-31T01:45:12.266Z,48.39
2022-08-31T01:45:33.977Z,48.77
2022-08-31T01:45:56.251Z,48.69
2022-08-31T01:46:18.948Z,48.73
2022-08-31T01:46:41.904Z,48.20
2022-08-31T01:47:04.002Z,48.21
2022-08-31T01:47:26.693Z,48.13
2022-08-31T01:47:48.396Z,48.65
2022-08-31T01:48:10.381Z,48.20
2022-08-31T01:48:32.706Z,48.25
2022-08-31T01:48:55.373Z,48.08
2022-08-31T01:49:20.345Z,48.50
2022-08-31T01:49:42.268Z,48.14
2022-08-31T01:50:04.693Z,47.96
2022-08-31T01:50:27.440Z,48.25
2022-08-31T01:50:49.376Z,48.23
2022-08-31T01:51:13.987Z,48.22
2022-08-31T01:51:37.813Z,48.39
2022-08-31T01:51:59.557Z,48.53
2022-08-31T01:52:21.184Z,48.42
2022-08-31T01:52:46.248Z,48.30
2022-08-31T01:53:09.739Z,48.45
2022-08-31T01:53:34.456Z,48.19
2022-08-31T01:53:56.602Z,48.50
2022-08-31T01:54:20.209Z,48.56
2022-08-31T01:54:41.916Z,48.83
2022-08-31T01:55:06.104Z,48.37
2022-08-31T01:55:27.798Z,48.78
2022-08-31T01:55:49.446Z,48.40
2022-08-31T01:56:13.681Z,47.99
2022-08-31T01:56:37.985Z,47.70
2022-08-31T01:57:01.743Z,47.42
2022-08-31T01:57:38.792Z,48.67
2022-08-31T01:58:20.212Z,48.19
2022-08-31T01:58:47.980Z,48.58
2022-08-31T01:59:28.902Z,48.81
2022-08-31T02:00:01.050Z,48.68
2022-08-31T02:00:44.154Z,48.62
2022-08-31T02:01:12.749Z,48.77
2022-08-31T02:01:51.331Z,48.50
2022-08-31T02:02:13.138Z,48.50
2022-08-31T02:02:37.246Z,48.63
2022-08-31T02:03:02.089Z,48.60
2022-08-31T02:03:25.112Z,48.57
2022-08-31T02:03:46.776Z,48.87
2022-08-31T02:04:11.425Z,49.08
2022-08-31T02:04:33.341Z,49.00
2022-08-31T02:04:54.986Z,49.02
2022-08-31T02:05:17.886Z,48.92
2022-08-31T02:05:41.129Z,48.66
2022-08-31T02:06:08.548Z,48.91
2022-08-31T02:06:30.979Z,48.60
2022-08-31T02:06:55.956Z,48.83
2022-08-31T02:07:17.661Z,48.79
2022-08-31T02:07:40.491Z,48.90
2022-08-31T02:08:03.161Z,49.15
2022-08-31T02:08:25.847Z,49.10
2022-08-31T02:08:49.001Z,49.36
2022-08-31T02:09:11.293Z,49.27
2022-08-31T02:09:32.963Z,49.25
2022-08-31T02:09:54.797Z,49.33
2022-08-31T02:10:17.452Z,49.32
2022-08-31T02:10:39.749Z,49.28
2022-08-31T02:11:01.708Z,48.97
2022-08-31T02:11:23.497Z,49.07
2022-08-31T02:11:46.814Z,48.92
2022-08-31T02:12:08.584Z,48.90
2022-08-31T02:12:34.488Z,48.27
2022-08-31T02:12:56.348Z,48.53
2022-08-31T02:13:25.006Z,48.92
2022-08-31T02:13:46.719Z,48.81
2022-08-31T02:14:10.783Z,49.40
2022-08-31T02:14:32.493Z,47.77
2022-08-31T02:14:55.162Z,47.38
2022-08-31T02:15:17.077Z,47.58
2022-08-31T02:15:39.361Z,48.56
2022-08-31T02:16:01.170Z,48.27
2022-08-31T02:16:24.373Z,47.94
2022-08-31T02:16:46.329Z,47.74
2022-08-31T02:17:08.669Z,47.86
2022-08-31T02:17:31.390Z,48.36
2022-08-31T02:17:53.511Z,47.97
2022-08-31T02:18:16.410Z,47.58
2022-08-31T02:18:40.857Z,47.95
2022-08-31T02:19:03.142Z,47.78
2022-08-31T02:19:24.823Z,47.86
2022-08-31T02:19:46.468Z,48.38
2022-08-31T02:20:12.519Z,47.94
2022-08-31T02:20:34.382Z,48.29
2022-08-31T02:20:56.296Z,47.89
2022-08-31T02:21:18.228Z,48.37
2022-08-31T02:21:41.185Z,48.44
2022-08-31T02:22:03.165Z,48.10
2022-08-31T02:22:24.978Z,48.11
2022-08-31T02:22:50.204Z,48.45
2022-08-31T02:23:12.907Z,48.49
2022-08-31T02:23:34.670Z,48.57
2022-08-31T02:23:57.689Z,48.29
2022-08-31T02:24:20.382Z,48.12
2022-08-31T02:24:43.321Z,48.32
2022-08-31T02:25:06.788Z,48.38
2022-08-31T02:25:31.452Z,48.19
2022-08-31T02:25:56.005Z,48.67
2022-08-31T02:26:19.179Z,48.80
2022-08-31T02:26:41.399Z,49.01
2022-08-31T02:27:03.424Z,49.10
2022-08-31T02:27:25.975Z,48.79
2022-08-31T02:27:48.836Z,48.81
2022-08-31T02:28:13.671Z,48.86
2022-08-31T02:28:35.571Z,49.06
2022-08-31T02:28:57.453Z,49.09
2022-08-31T02:29:21.648Z,48.90
2022-08-31T02:29:43.367Z,48.39
2022-08-31T02:30:06.809Z,48.72
2022-08-31T02:30:28.809Z,48.77
2022-08-31T02:30:53.731Z,48.67
2022-08-31T02:31:15.782Z,48.69
2022-08-31T02:31:47.005Z,48.96
2022-08-31T02:32:19.663Z,48.96
2022-08-31T02:32:43.588Z,48.63
2022-08-31T02:33:05.372Z,48.49
2022-08-31T02:33:27.017Z,48.51
2022-08-31T02:33:48.717Z,49.23
2022-08-31T02:34:12.320Z,49.22
2022-08-31T02:34:35.463Z,49.26
2022-08-31T02:34:57.119Z,49.47
2022-08-31T02:35:19.544Z,49.55
2022-08-31T02:35:42.996Z,49.52
2022-08-31T02:36:06.148Z,49.53
2022-08-31T02:36:28.149Z,49.57
2022-08-31T02:36:50.625Z,49.79
2022-08-31T02:37:13.871Z,49.83
2022-08-31T02:37:35.955Z,49.26
2022-08-31T02:37:58.850Z,49.29
2022-08-31T02:38:22.875Z,49.67
2022-08-31T02:38:45.513Z,49.58
2022-08-31T02:39:08.532Z,49.27
2022-08-31T02:39:31.929Z,49.27
2022-08-31T02:39:53.836Z,49.25
2022-08-31T02:40:16.653Z,49.33
2022-08-31T02:40:40.931Z,49.26
2022-08-31T02:41:05.294Z,49.10
2022-08-31T02:41:27.117Z,49.06
2022-08-31T02:41:48.919Z,49.58
2022-08-31T02:42:10.663Z,49.64
2022-08-31T02:42:52.126Z,49.52
2022-08-31T02:43:24.402Z,49.01
2022-08-31T02:43:48.339Z,49.35
2022-08-31T02:44:10.786Z,49.83
2022-08-31T02:44:32.717Z,49.56
2022-08-31T02:44:55.341Z,49.17
2022-08-31T02:45:17.999Z,49.34
2022-08-31T02:45:39.760Z,49.56
2022-08-31T02:46:07.522Z,49.78
2022-08-31T02:46:36.650Z,49.71
2022-08-31T02:47:19.185Z,50.00
2022-08-31T02:48:06.258Z,49.81
2022-08-31T02:48:35.720Z,49.90
2022-08-31T02:48:57.676Z,50.13
2022-08-31T02:49:19.654Z,49.87
2022-08-31T02:49:42.260Z,50.06
2022-08-31T02:50:05.928Z,50.51
2022-08-31T02:50:29.190Z,49.97
2022-08-31T02:50:53.575Z,49.56
2022-08-31T02:51:16.254Z,49.57
2022-08-31T02:51:40.264Z,50.06
2022-08-31T02:52:02.025Z,49.83
2022-08-31T02:52:23.900Z,49.51
2022-08-31T02:52:46.194Z,49.62
2022-08-31T02:53:09.747Z,50.11
2022-08-31T02:53:31.891Z,50.35
2022-08-31T02:53:53.613Z,50.35
2022-08-31T02:54:18.153Z,50.63
2022-08-31T02:54:41.425Z,50.78
2022-08-31T02:55:05.073Z,50.77
2022-08-31T02:55:27.580Z,50.70
2022-08-31T02:55:49.720Z,50.85
2022-08-31T02:56:14.226Z,50.64
2022-08-31T02:56:35.950Z,50.97
2022-08-31T02:56:58.851Z,51.35
2022-08-31T02:57:20.536Z,50.14
2022-08-31T02:57:42.240Z,50.32
2022-08-31T02:58:06.322Z,49.85
2022-08-31T02:58:29.146Z,49.71
2022-08-31T02:58:54.672Z,49.89
2022-08-31T02:59:20.641Z,49.92
2022-08-31T02:59:42.458Z,49.87
2022-08-31T03:00:07.039Z,50.36
2022-08-31T03:00:28.813Z,49.83
2022-08-31T03:00:51.286Z,49.93
2022-08-31T03:01:13.989Z,49.81
2022-08-31T03:01:37.231Z,49.70
2022-08-31T03:01:59.187Z,49.61
2022-08-31T03:02:22.542Z,50.14
2022-08-31T03:02:54.886Z,50.00
2022-08-31T03:03:17.884Z,50.02
2022-08-31T03:03:39.780Z,50.11
2022-08-31T03:04:03.177Z,49.64
2022-08-31T03:04:25.874Z,49.72
2022-08-31T03:04:47.480Z,49.91
2022-08-31T03:05:11.593Z,50.00
2022-08-31T03:05:33.473Z,50.33
2022-08-31T03:05:56.365Z,50.60
2022-08-31T03:06:19.816Z,50.66
2022-08-31T03:06:42.107Z,50.34
2022-08-31T03:07:03.952Z,50.46
2022-08-31T03:07:25.665Z,50.26
2022-08-31T03:07:49.648Z,50.22
2022-08-31T03:08:11.439Z,50.61
2022-08-31T03:08:33.731Z,50.54
2022-08-31T03:08:55.455Z,51.11
2022-08-31T03:09:20.518Z,50.46
2022-08-31T03:09:42.229Z,50.48
2022-08-31T03:10:08.546Z,50.46
2022-08-31T03:10:30.360Z,50.47
2022-08-31T03:10:53.743Z,50.14
2022-08-31T03:11:17.772Z,50.68
2022-08-31T03:11:39.525Z,50.83
2022-08-31T03:12:01.386Z,50.52
2022-08-31T03:12:26.647Z,50.98
2022-08-31T03:12:51.876Z,50.63
2022-08-31T03:13:13.740Z,50.69
2022-08-31T03:13:38.423Z,50.26
2022-08-31T03:14:01.028Z,50.39
2022-08-31T03:14:23.528Z,50.63
2022-08-31T03:14:46.463Z,51.20
2022-08-31T03:15:10.045Z,50.99
2022-08-31T03:15:32.838Z,51.29
2022-08-31T03:15:57.230Z,51.30
2022-08-31T03:16:19.573Z,51.50
2022-08-31T03:16:42.176Z,51.39
2022-08-31T03:17:04.977Z,51.12
2022-08-31T03:17:28.392Z,51.42
2022-08-31T03:17:50.790Z,51.29
2022-08-31T03:18:15.568Z,51.61
2022-08-31T03:18:38.403Z,51.18
2022-08-31T03:19:00.236Z,51.57
2022-08-31T03:19:22.716Z,51.13
2022-08-31T03:19:44.348Z,51.06
2022-08-31T03:20:08.729Z,50.87
2022-08-31T03:20:30.536Z,51.16
2022-08-31T03:20:56.458Z,50.82
2022-08-31T03:21:18.170Z,51.28
2022-08-31T03:21:40.479Z,51.19
2022-08-31T03:22:03.618Z,51.05
2022-08-31T03:22:25.227Z,51.04
2022-08-31T03:22:47.034Z,50.84
2022-08-31T03:23:09.256Z,50.66
2022-08-31T03:23:32.605Z,50.77
2022-08-31T03:23:54.538Z,50.90
2022-08-31T03:24:17.934Z,50.66
2022-08-31T03:24:41.110Z,50.83
2022-08-31T03:25:04.409Z,51.02
2022-08-31T03:25:26.265Z,50.78
2022-08-31T03:25:48.925Z,51.10
2022-08-31T03:26:11.566Z,51.16
2022-08-31T03:26:34.449Z,50.94
2022-08-31T03:26:56.188Z,50.59
2022-08-31T03:27:18.209Z,50.58
2022-08-31T03:27:40.956Z,50.93
2022-08-31T03:28:04.413Z,50.77
2022-08-31T03:28:28.667Z,50.90
2022-08-31T03:29:28.669Z,51.17
2022-08-31T03:30:12.898Z,51.18
2022-08-31T03:30:37.230Z,51.33
2022-08-31T03:31:02.655Z,50.85
2022-08-31T03:31:24.854Z,51.21
2022-08-31T03:31:47.921Z,51.44
2022-08-31T03:32:10.869Z,51.26
2022-08-31T03:32:33.600Z,51.31
2022-08-31T03:32:57.267Z,51.03
2022-08-31T03:33:25.886Z,50.85
2022-08-31T03:33:47.504Z,51.28
2022-08-31T03:34:09.144Z,50.90
2022-08-31T03:34:30.946Z,51.34
2022-08-31T03:34:55.377Z,51.30
2022-08-31T03:35:18.670Z,50.92
2022-08-31T03:35:43.680Z,51.29
2022-08-31T03:36:05.795Z,50.98
2022-08-31T03:36:28.484Z,50.84
2022-08-31T03:36:50.111Z,50.82
2022-08-31T03:37:12.128Z,50.98
2022-08-31T03:37:34.014Z,51.12
2022-08-31T03:37:58.286Z,51.18
2022-08-31T03:38:20.535Z,51.46
2022-08-31T03:38:42.343Z,50.95
2022-08-31T03:39:04.670Z,50.84
2022-08-31T03:39:27.403Z,50.84
2022-08-31T03:39:51.645Z,50.92
2022-08-31T03:40:13.953Z,51.07
2022-08-31T03:40:35.838Z,51.13
2022-08-31T03:40:59.320Z,51.02
2022-08-31T03:41:24.714Z,50.73
2022-08-31T03:41:47.079Z,50.78
2022-08-31T03:42:09.013Z,50.97
2022-08-31T03:42:32.008Z,50.73
2022-08-31T03:42:53.989Z,51.19
2022-08-31T03:43:15.896Z,51.05
2022-08-31T03:43:39.159Z,50.71
2022-08-31T03:44:01.906Z,50.64
2022-08-31T03:44:23.834Z,51.44
2022-08-31T03:44:46.851Z,51.26
2022-08-31T03:45:16.843Z,50.88
2022-08-31T03:45:39.981Z,51.21
2022-08-31T03:46:01.869Z,50.69
2022-08-31T03:46:24.726Z,50.58
2022-08-31T03:46:50.048Z,51.12
2022-08-31T03:47:12.801Z,50.79
2022-08-31T03:47:36.936Z,50.80
2022-08-31T03:48:11.990Z,50.15
2022-08-31T03:48:35.964Z,50.57
2022-08-31T03:49:00.247Z,50.50
2022-08-31T03:49:22.470Z,50.38
2022-08-31T03:50:10.485Z,49.93
2022-08-31T03:50:46.587Z,49.88
2022-08-31T03:51:13.837Z,50.12
2022-08-31T03:51:37.129Z,50.31
2022-08-31T03:51:59.162Z,50.26
2022-08-31T03:52:25.627Z,50.20
2022-08-31T03:53:05.242Z,50.35
2022-08-31T03:53:27.170Z,50.53
2022-08-31T03:53:51.980Z,50.96
2022-08-31T03:54:15.070Z,51.26
2022-08-31T03:54:36.937Z,51.14
2022-08-31T03:55:00.283Z,51.08
2022-08-31T03:55:23.091Z,51.42
2022-08-31T03:55:46.983Z,51.03
2022-08-31T03:56:09.350Z,51.07
2022-08-31T03:56:35.763Z,51.06
2022-08-31T03:56:57.679Z,50.96
2022-08-31T03:57:20.475Z,51.01
2022-08-31T03:57:42.249Z,50.87
2022-08-31T03:58:04.917Z,51.39
2022-08-31T03:58:28.793Z,51.12
2022-08-31T03:58:51.639Z,51.17
2022-08-31T03:59:53.324Z,51.84
2022-08-31T04:00:17.016Z,51.81
2022-08-31T04:00:44.270Z,51.07
2022-08-31T04:01:21.359Z,50.71
2022-08-31T04:02:01.413Z,50.92
2022-08-31T04:02:42.095Z,51.50
2022-08-31T04:03:30.661Z,50.57
2022-08-31T04:04:12.186Z,51.32
2022-08-31T04:04:57.598Z,51.20
2022-08-31T04:05:44.030Z,51.33
2022-08-31T04:06:11.135Z,51.57
2022-08-31T04:06:51.637Z,51.55
2022-08-31T04:07:42.012Z,51.69
2022-08-31T04:08:26.005Z,51.83
2022-08-31T04:09:08.345Z,51.89
2022-08-31T04:09:57.091Z,51.61
2022-08-31T04:10:53.201Z,51.80
2022-08-31T04:11:46.372Z,51.66
2022-08-31T04:12:34.204Z,51.25
2022-08-31T04:13:08.093Z,51.46
2022-08-31T04:13:50.132Z,51.78
2022-08-31T04:14:30.049Z,51.74
2022-08-31T04:15:11.518Z,51.58
2022-08-31T04:16:10.033Z,51.25
2022-08-31T04:16:50.110Z,51.55
2022-08-31T04:17:37.007Z,51.45
2022-08-31T04:18:20.633Z,51.08
2022-08-31T04:18:45.225Z,51.20
2022-08-31T04:19:09.417Z,51.27
2022-08-31T04:19:42.984Z,51.04
2022-08-31T04:20:29.957Z,50.57
2022-08-31T04:20:52.189Z,50.30
2022-08-31T04:21:15.635Z,50.29
2022-08-31T04:21:37.654Z,50.30
2022-08-31T04:21:59.364Z,50.37
2022-08-31T04:22:23.634Z,50.25
2022-08-31T04:23:11.768Z,49.87
2022-08-31T04:23:41.172Z,49.78
2022-08-31T04:24:05.007Z,50.22
2022-08-31T04:24:26.830Z,50.15
2022-08-31T04:24:48.599Z,50.18
2022-08-31T04:25:10.553Z,50.65
2022-08-31T04:25:33.448Z,51.02
2022-08-31T04:25:57.756Z,50.84
2022-08-31T04:26:23.789Z,50.87
2022-08-31T04:26:46.392Z,51.00
2022-08-31T04:27:08.106Z,50.59
2022-08-31T04:27:29.777Z,50.59
2022-08-31T04:27:54.152Z,50.39
2022-08-31T04:28:16.834Z,50.95
2022-08-31T04:28:39.825Z,50.95
2022-08-31T04:29:01.920Z,50.93
2022-08-31T04:29:23.696Z,50.86
2022-08-31T04:29:46.325Z,51.02
2022-08-31T04:30:09.630Z,50.66
2022-08-31T04:30:31.463Z,50.65
2022-08-31T04:30:53.238Z,50.97
2022-08-31T04:31:17.383Z,51.03
2022-08-31T04:31:39.591Z,50.70
2022-08-31T04:32:01.245Z,50.86
2022-08-31T04:32:23.112Z,51.08
2022-08-31T04:32:44.919Z,50.87
2022-08-31T04:33:07.692Z,50.69
2022-08-31T04:33:29.381Z,50.72
2022-08-31T04:33:51.181Z,51.09
2022-08-31T04:34:13.237Z,50.90
2022-08-31T04:34:35.987Z,50.91
2022-08-31T04:34:58.029Z,50.60
2022-08-31T04:35:19.941Z,50.17
2022-08-31T04:35:42.778Z,50.13
2022-08-31T04:36:09.109Z,50.05
2022-08-31T04:36:31.460Z,50.31
2022-08-31T04:36:54.367Z,50.39
2022-08-31T04:37:16.268Z,50.38
2022-08-31T04:37:46.391Z,50.41
2022-08-31T04:38:10.087Z,50.29
2022-08-31T04:38:32.972Z,49.77
2022-08-31T04:38:56.798Z,49.60
2022-08-31T04:39:20.951Z,49.84
2022-08-31T04:39:50.439Z,50.56
2022-08-31T04:40:18.158Z,50.24
2022-08-31T04:40:43.020Z,50.22
2022-08-31T04:41:09.799Z,50.33
2022-08-31T04:41:33.198Z,49.93
2022-08-31T04:41:55.117Z,50.42
2022-08-31T04:42:18.324Z,50.48
2022-08-31T04:42:40.247Z,50.90
2022-08-31T04:43:01.983Z,50.83
2022-08-31T04:43:25.029Z,50.88
2022-08-31T04:43:50.165Z,50.89
2022-08-31T04:44:15.367Z,50.79
2022-08-31T04:44:39.892Z,51.18
2022-08-31T04:45:02.572Z,50.92
2022-08-31T04:45:24.582Z,50.70
2022-08-31T04:45:47.242Z,50.60
2022-08-31T04:46:09.530Z,50.83
2022-08-31T04:46:33.958Z,50.88
2022-08-31T04:46:55.764Z,50.76
2022-08-31T04:47:17.474Z,50.45
2022-08-31T04:47:39.194Z,51.19
2022-08-31T04:48:00.890Z,51.05
2022-08-31T04:48:23.526Z,50.65
2022-08-31T04:48:45.237Z,50.68
2022-08-31T04:49:09.172Z,50.65
2022-08-31T04:49:30.969Z,50.74
2022-08-31T04:49:52.715Z,50.75
2022-08-31T04:50:16.475Z,50.80
2022-08-31T04:51:02.340Z,50.77
2022-08-31T04:51:25.716Z,51.10
2022-08-31T04:51:48.423Z,51.18
2022-08-31T04:52:10.159Z,51.15
2022-08-31T04:52:31.905Z,51.23
2022-08-31T04:53:01.124Z,51.22
2022-08-31T04:53:26.628Z,51.06
2022-08-31T04:53:48.612Z,51.21
2022-08-31T04:54:12.176Z,51.16
2022-08-31T04:54:35.140Z,51.24
2022-08-31T04:54:56.847Z,50.93
2022-08-31T04:55:18.593Z,51.48
2022-08-31T04:55:41.417Z,51.40
2022-08-31T04:56:09.761Z,51.23
2022-08-31T04:56:33.822Z,51.13
2022-08-31T04:56:55.778Z,50.96
2022-08-31T04:57:25.192Z,51.09
2022-08-31T04:57:46.871Z,51.43
2022-08-31T04:58:08.853Z,51.42
2022-08-31T04:58:30.629Z,51.49
2022-08-31T04:58:54.900Z,51.63
2022-08-31T04:59:18.999Z,51.77
2022-08-31T05:00:01.364Z,51.89
2022-08-31T05:00:52.975Z,51.77
2022-08-31T05:01:49.726Z,52.22
2022-08-31T05:02:15.448Z,52.07
2022-08-31T05:02:45.283Z,52.31
2022-08-31T05:03:11.496Z,52.30
2022-08-31T05:03:33.805Z,52.54
2022-08-31T05:03:58.220Z,52.16
2022-08-31T05:04:23.995Z,51.97
2022-08-31T05:04:45.685Z,51.88
2022-08-31T05:05:07.844Z,52.16
2022-08-31T05:05:30.715Z,52.36
2022-08-31T05:05:53.530Z,51.99
2022-08-31T05:06:17.515Z,51.94
2022-08-31T05:06:42.553Z,51.88
2022-08-31T05:07:04.368Z,52.07
2022-08-31T05:07:27.481Z,51.93
2022-08-31T05:07:52.197Z,52.50
2022-08-31T05:08:13.937Z,52.20
2022-08-31T05:08:35.648Z,51.87
2022-08-31T05:09:00.069Z,51.49
2022-08-31T05:09:23.516Z,51.08
2022-08-31T05:09:46.898Z,50.88
2022-08-31T05:10:09.355Z,51.33
2022-08-31T05:10:32.087Z,50.81
2022-08-31T05:10:53.709Z,50.97
2022-08-31T05:11:21.737Z,51.23
2022-08-31T05:11:46.850Z,51.43
2022-08-31T05:12:10.077Z,51.15
2022-08-31T05:12:32.009Z,51.56
2022-08-31T05:12:53.888Z,52.05
2022-08-31T05:13:17.222Z,52.24
2022-08-31T05:13:39.981Z,52.37
2022-08-31T05:14:03.544Z,52.45
2022-08-31T05:14:25.808Z,52.35
2022-08-31T05:14:55.055Z,52.36
2022-08-31T05:15:19.520Z,52.47
2022-08-31T05:15:42.635Z,52.72
2022-08-31T05:16:05.993Z,52.67
2022-08-31T05:16:30.537Z,52.03
2022-08-31T05:16:54.008Z,52.60
2022-08-31T05:17:17.290Z,52.84
2022-08-31T05:17:38.998Z,52.42
2022-08-31T05:18:00.805Z,52.42
2022-08-31T05:18:25.592Z,52.74
2022-08-31T05:18:51.913Z,52.81
2022-08-31T05:19:14.754Z,52.93
2022-08-31T05:19:41.046Z,52.74
2022-08-31T05:20:05.280Z,52.56